Time;durP1;ratioP1;P1;durP2;ratioP2;P2;SDS_P1;SDS_P2;PMS_P1;PMS_P2;Temp;Humidity;BMP_temperature;BMP_pressure;BME280_temperature;BME280_humidity;BME280_pressure;Samples;Min_cycle;Max_cycle;Signal;HPM_P1;HPM_P2
2022/05/23 00:00:12;;;;;;;5.03;2.70;;;17.30;39.50;;;;;;5093554;28;20296;-30
2022/05/23 00:02:38;;;;;;;3.60;2.40;;;17.30;39.50;;;;;;5093893;28;20418;-30
2022/05/23 00:05:06;;;;;;;2.43;1.60;;;17.20;39.50;;;;;;5093286;28;20208;-30
2022/05/23 00:07:34;;;;;;;4.32;2.53;;;17.20;39.70;;;;;;5093290;28;20172;-29
2022/05/23 00:10:02;;;;;;;5.43;2.50;;;17.20;39.50;;;;;;5093760;28;20666;-28
2022/05/23 00:12:28;;;;;;;2.55;2.20;;;17.10;39.50;;;;;;5093205;28;20619;-30
2022/05/23 00:14:54;;;;;;;4.22;3.22;;;17.10;39.60;;;;;;5092467;28;20749;-29
2022/05/23 00:17:20;;;;;;;4.03;2.30;;;17.10;39.70;;;;;;5093199;28;20255;-29
2022/05/23 00:19:47;;;;;;;4.13;1.90;;;17.10;39.50;;;;;;5093290;28;20467;-31
2022/05/23 00:22:14;;;;;;;3.42;2.60;;;17.10;39.70;;;;;;5093184;28;20168;-31
2022/05/23 00:24:41;;;;;;;2.47;2.03;;;17.10;39.60;;;;;;5093017;28;20232;-30
2022/05/23 00:27:10;;;;;;;3.78;2.20;;;17.00;39.60;;;;;;5092880;28;20164;-29
2022/05/23 00:29:36;;;;;;;4.47;2.10;;;17.00;39.70;;;;;;5074798;28;20198;-30
2022/05/23 00:37:31;;;;;;;3.65;2.10;;;16.90;39.80;;;;;;5092796;28;20225;-29
2022/05/23 00:39:57;;;;;;;10.83;2.30;;;16.90;39.80;;;;;;5093071;28;20180;-29
2022/05/23 00:45:17;;;;;;;3.75;1.98;;;16.90;40.00;;;;;;5092687;28;20452;-29
2022/05/23 00:47:43;;;;;;;4.53;2.60;;;16.80;39.90;;;;;;5092410;28;20176;-28
2022/05/23 00:50:13;;;;;;;3.13;2.30;;;16.70;40.00;;;;;;5092797;28;20167;-28
2022/05/23 00:52:48;;;;;;;2.65;1.90;;;16.70;40.00;;;;;;5092669;28;20164;-30
2022/05/23 00:55:23;;;;;;;2.10;1.65;;;16.80;40.00;;;;;;5092594;28;20230;-28
2022/05/23 00:57:55;;;;;;;2.53;2.28;;;16.70;40.00;;;;;;5092346;28;20175;-30
2022/05/23 01:00:21;;;;;;;2.85;2.13;;;16.70;40.20;;;;;;5092695;28;20172;-28
2022/05/23 01:02:54;;;;;;;3.67;2.00;;;16.60;40.30;;;;;;5092731;28;20458;-28
2022/05/23 01:05:20;;;;;;;3.40;1.92;;;16.60;40.10;;;;;;5092320;28;20450;-28
2022/05/23 01:07:46;;;;;;;3.30;2.22;;;16.60;40.30;;;;;;5092183;28;20206;-28
2022/05/23 01:10:12;;;;;;;2.30;1.80;;;16.60;40.30;;;;;;5092513;28;20189;-28
2022/05/23 01:12:39;;;;;;;4.35;2.20;;;16.60;40.10;;;;;;5092226;28;20206;-30
2022/05/23 01:15:20;;;;;;;2.40;2.13;;;16.60;40.10;;;;;;5092307;28;20207;-28
2022/05/23 01:17:45;;;;;;;3.05;1.90;;;16.60;40.30;;;;;;5092109;28;20171;-29
2022/05/23 01:20:12;;;;;;;3.10;2.57;;;16.50;40.50;;;;;;5092247;28;20172;-29
2022/05/23 01:22:59;;;;;;;3.20;1.90;;;16.50;40.50;;;;;;5092250;28;20861;-28
2022/05/23 01:25:31;;;;;;;3.40;1.85;;;16.50;40.60;;;;;;5091724;28;20571;-28
2022/05/23 01:27:58;;;;;;;3.10;2.80;;;16.40;40.60;;;;;;5092095;28;20175;-28
2022/05/23 01:30:24;;;;;;;3.10;2.60;;;16.40;40.60;;;;;;5092157;28;20242;-28
2022/05/23 01:32:49;;;;;;;2.63;1.87;;;16.30;40.40;;;;;;5092205;28;20426;-29
2022/05/23 01:35:16;;;;;;;2.30;1.90;;;16.20;40.50;;;;;;5092053;28;20917;-28
2022/05/23 01:37:42;;;;;;;2.35;1.63;;;16.20;40.50;;;;;;5092158;28;20751;-30
2022/05/23 01:40:10;;;;;;;2.87;1.80;;;16.20;40.30;;;;;;5092264;28;20176;-29
2022/05/23 01:42:36;;;;;;;3.45;2.60;;;16.20;40.50;;;;;;5092091;28;20406;-30
2022/05/23 01:45:03;;;;;;;2.83;1.90;;;16.20;40.70;;;;;;5091906;28;20211;-30
2022/05/23 01:47:29;;;;;;;3.30;2.33;;;16.10;40.70;;;;;;5091729;28;20584;-30
2022/05/23 01:49:54;;;;;;;2.80;2.20;;;16.10;40.70;;;;;;5091981;28;20293;-29
2022/05/23 01:52:20;;;;;;;2.60;2.17;;;16.10;40.70;;;;;;5091911;28;20233;-31
2022/05/23 01:54:46;;;;;;;3.20;2.30;;;16.10;40.90;;;;;;5092141;28;20199;-27
2022/05/23 01:57:13;;;;;;;3.27;2.10;;;16.10;41.00;;;;;;5091726;28;20183;-27
2022/05/23 02:02:24;;;;;;;4.72;2.40;;;16.00;41.60;;;;;;5091900;28;20183;-29
2022/05/23 02:04:51;;;;;;;3.50;2.20;;;15.90;41.30;;;;;;5091685;28;20207;-28
2022/05/23 02:07:17;;;;;;;3.35;2.47;;;15.90;41.30;;;;;;5091643;28;20174;-30
2022/05/23 02:09:43;;;;;;;5.20;1.97;;;15.90;41.50;;;;;;5091861;28;20193;-27
2022/05/23 02:12:10;;;;;;;4.25;2.50;;;15.90;41.50;;;;;;5091891;28;20385;-29
2022/05/23 02:14:36;;;;;;;3.35;2.28;;;15.90;41.30;;;;;;5091607;28;20176;-28
2022/05/23 02:17:02;;;;;;;3.43;2.30;;;15.90;41.30;;;;;;5091552;28;20671;-30
2022/05/23 02:19:32;;;;;;;2.97;2.40;;;15.90;41.20;;;;;;5091660;28;20413;-28
2022/05/23 02:21:58;;;;;;;2.58;2.22;;;16.00;41.30;;;;;;5092676;28;20175;-30
2022/05/23 02:24:23;;;;;;;3.27;2.27;;;15.90;41.60;;;;;;5091568;28;20253;-28
2022/05/23 02:26:49;;;;;;;4.23;1.73;;;15.90;41.40;;;;;;5091378;28;20204;-29
2022/05/23 02:29:15;;;;;;;3.23;2.23;;;15.80;41.50;;;;;;5091674;28;20207;-29
2022/05/23 02:31:41;;;;;;;6.28;2.20;;;15.80;41.60;;;;;;5091539;28;20265;-29
2022/05/23 02:34:08;;;;;;;3.55;2.83;;;15.80;41.60;;;;;;5091606;28;20168;-28
2022/05/23 02:36:33;;;;;;;4.05;2.55;;;15.70;41.70;;;;;;5092104;28;20188;-30
2022/05/23 02:38:59;;;;;;;3.53;2.47;;;15.70;41.70;;;;;;5095007;28;20187;-29
2022/05/23 02:41:25;;;;;;;2.60;2.37;;;15.70;41.60;;;;;;5095093;28;20175;-28
2022/05/23 02:43:50;;;;;;;5.50;2.33;;;15.70;41.80;;;;;;5095057;28;20172;-29
2022/05/23 02:46:16;;;;;;;5.03;2.37;;;15.70;41.90;;;;;;5095430;28;20559;-29
2022/05/23 02:48:42;;;;;;;3.10;2.23;;;15.70;41.70;;;;;;5094834;28;20202;-28
2022/05/23 02:51:08;;;;;;;3.90;3.00;;;15.70;41.90;;;;;;5095174;28;20397;-30
2022/05/23 02:53:34;;;;;;;2.80;2.07;;;15.60;41.70;;;;;;5094943;28;20176;-29
2022/05/23 02:55:59;;;;;;;4.00;1.90;;;15.60;41.70;;;;;;5094821;28;20192;-28
2022/05/23 02:58:25;;;;;;;3.20;2.17;;;15.50;41.80;;;;;;5095121;28;20275;-29
2022/05/23 03:00:51;;;;;;;2.40;1.63;;;15.50;41.80;;;;;;5097452;28;20438;-28
2022/05/23 03:03:17;;;;;;;4.05;2.00;;;15.50;41.90;;;;;;5096831;28;20592;-29
2022/05/23 03:05:48;;;;;;;3.50;2.23;;;15.50;41.80;;;;;;5097230;28;20647;-28
2022/05/23 03:08:17;;;;;;;3.35;1.90;;;15.50;41.80;;;;;;5097707;28;20168;-30
2022/05/23 03:10:43;;;;;;;5.82;2.08;;;15.50;42.00;;;;;;5097389;28;20207;-30
2022/05/23 03:13:09;;;;;;;4.23;2.60;;;15.40;42.00;;;;;;5097778;28;20168;-30
2022/05/23 03:15:35;;;;;;;3.00;2.50;;;15.40;42.10;;;;;;5094517;28;20486;-29
2022/05/23 03:18:01;;;;;;;3.70;2.17;;;15.40;42.10;;;;;;5094537;28;20175;-29
2022/05/23 03:20:27;;;;;;;2.67;2.20;;;15.40;42.10;;;;;;5094342;28;20457;-29
2022/05/23 03:28:22;;;;;;;3.22;2.20;;;15.30;42.30;;;;;;5094403;28;20271;-28
2022/05/23 03:30:48;;;;;;;2.23;1.97;;;15.40;42.30;;;;;;5094354;28;20196;-29
2022/05/23 03:33:15;;;;;;;2.20;1.83;;;15.30;42.40;;;;;;5094224;28;20155;-29
2022/05/23 03:35:42;;;;;;;3.35;2.13;;;15.30;42.40;;;;;;5094168;28;20209;-30
2022/05/23 03:38:08;;;;;;;4.35;2.65;;;15.30;42.40;;;;;;5093968;28;20172;-28
2022/05/23 03:40:37;;;;;;;2.78;2.20;;;15.30;42.50;;;;;;5095500;28;20164;-31
2022/05/23 03:43:03;;;;;;;2.50;2.30;;;15.30;42.50;;;;;;5095690;28;20172;-30
2022/05/23 03:45:30;;;;;;;2.88;2.08;;;15.30;42.50;;;;;;5095587;28;20239;-30
2022/05/23 03:47:56;;;;;;;3.10;2.80;;;15.40;42.40;;;;;;5095845;28;20206;-30
2022/05/23 03:50:25;;;;;;;2.60;1.90;;;15.40;42.40;;;;;;5094368;28;20202;-29
2022/05/23 03:52:52;;;;;;;4.90;2.13;;;15.50;42.40;;;;;;5093689;28;20178;-29
2022/05/23 03:55:18;;;;;;;6.22;2.03;;;15.50;42.60;;;;;;5093488;28;20200;-30
2022/05/23 03:57:44;;;;;;;2.97;1.77;;;15.50;42.70;;;;;;5093590;28;20200;-30
2022/05/23 04:00:14;;;;;;;3.07;2.70;;;15.60;42.80;;;;;;5093715;28;20603;-28
2022/05/23 04:02:42;;;;;;;2.95;2.03;;;15.70;42.90;;;;;;5093676;28;20405;-28
2022/05/23 04:05:10;;;;;;;3.08;2.17;;;15.70;42.80;;;;;;5093437;28;20218;-30
2022/05/23 04:07:38;;;;;;;3.30;2.63;;;15.80;43.00;;;;;;5093255;28;20183;-29
2022/05/23 04:10:10;;;;;;;2.65;2.45;;;15.90;43.10;;;;;;5093454;28;20172;-30
2022/05/23 04:12:37;;;;;;;3.03;2.65;;;16.10;43.20;;;;;;5093674;28;20175;-30
2022/05/23 04:15:07;;;;;;;3.80;2.40;;;16.10;43.10;;;;;;5093262;28;20238;-29
2022/05/23 04:17:33;;;;;;;2.40;2.20;;;16.20;43.20;;;;;;5093217;28;20651;-30
2022/05/23 04:19:59;;;;;;;3.45;2.70;;;16.30;42.90;;;;;;5093215;28;20270;-29
2022/05/23 04:22:25;;;;;;;3.00;2.23;;;16.40;42.80;;;;;;5093189;28;20259;-29
2022/05/23 04:24:50;;;;;;;3.60;2.70;;;16.40;42.70;;;;;;5093222;28;20203;-28
2022/05/23 04:27:17;;;;;;;2.77;2.23;;;16.50;42.60;;;;;;5093350;28;20305;-28
2022/05/23 04:29:43;;;;;;;2.72;1.95;;;16.50;42.60;;;;;;5093032;28;20655;-29
2022/05/23 04:37:38;;;;;;;2.58;1.95;;;16.60;42.20;;;;;;5093206;28;20229;-29
2022/05/23 04:40:05;;;;;;;16.40;2.83;;;16.60;42.30;;;;;;5092931;28;20648;-29
2022/05/23 04:42:31;;;;;;;5.70;2.78;;;16.60;42.50;;;;;;5093147;28;20175;-28
2022/05/23 04:44:56;;;;;;;4.95;3.45;;;16.70;42.50;;;;;;5092886;28;20204;-29
2022/05/23 04:50:07;;;;;;;6.20;2.95;;;16.80;42.60;;;;;;5093098;28;20669;-29
2022/05/23 04:52:32;;;;;;;2.53;2.22;;;16.90;42.40;;;;;;5092684;28;20172;-29
2022/05/23 04:54:58;;;;;;;4.43;2.67;;;17.10;42.10;;;;;;5092523;28;20321;-28
2022/05/23 04:57:24;;;;;;;2.93;2.20;;;17.20;41.90;;;;;;5092486;28;20177;-29
2022/05/23 04:59:49;;;;;;;5.20;2.30;;;17.30;41.80;;;;;;5092146;28;20573;-30
2022/05/23 05:02:15;;;;;;;3.50;2.33;;;17.40;41.50;;;;;;5092569;28;20215;-29
2022/05/23 05:04:41;;;;;;;5.13;2.63;;;17.60;41.50;;;;;;5092387;28;20728;-29
2022/05/23 05:07:07;;;;;;;3.15;2.63;;;17.70;41.10;;;;;;5092321;28;20598;-29
2022/05/23 05:09:33;;;;;;;4.93;2.90;;;17.90;41.10;;;;;;5092411;28;20174;-29
2022/05/23 05:12:00;;;;;;;4.30;2.38;;;18.00;40.90;;;;;;5092408;28;20402;-30
2022/05/23 05:14:27;;;;;;;3.92;1.75;;;18.10;40.90;;;;;;5092429;28;20800;-28
2022/05/23 05:16:53;;;;;;;3.17;2.40;;;18.30;40.70;;;;;;5092052;28;20203;-29
2022/05/23 05:19:19;;;;;;;4.03;2.50;;;18.30;40.30;;;;;;5092430;28;20172;-29
2022/05/23 05:21:45;;;;;;;2.73;1.93;;;18.40;40.00;;;;;;5092310;28;20263;-29
2022/05/23 05:24:11;;;;;;;3.35;2.30;;;18.50;40.00;;;;;;5092121;28;20457;-29
2022/05/23 05:26:37;;;;;;;2.45;1.65;;;18.50;39.80;;;;;;5092215;28;20192;-28
2022/05/23 05:29:04;;;;;;;3.97;2.03;;;18.60;39.70;;;;;;5091970;28;20297;-28
2022/05/23 05:31:37;;;;;;;4.45;2.15;;;18.80;39.50;;;;;;5092212;28;20255;-28
2022/05/23 05:34:20;;;;;;;2.70;1.70;;;18.90;39.40;;;;;;5092303;28;20167;-29
2022/05/23 05:36:51;;;;;;;3.80;2.22;;;19.00;39.00;;;;;;5091968;28;20183;-30
2022/05/23 05:39:20;;;;;;;4.15;2.13;;;19.20;38.60;;;;;;5074081;28;20304;-28
2022/05/23 05:41:57;;;;;;;3.47;1.80;;;19.40;38.50;;;;;;5092041;28;20717;-29
2022/05/23 05:44:30;;;;;;;2.20;1.98;;;19.50;38.50;;;;;;5092123;28;20200;-29
2022/05/23 05:47:00;;;;;;;2.88;1.60;;;19.60;37.80;;;;;;5091988;28;20320;-29
2022/05/23 05:49:31;;;;;;;2.42;1.65;;;19.80;37.60;;;;;;5092096;28;20698;-29
2022/05/23 05:52:02;;;;;;;2.08;1.58;;;19.90;37.30;;;;;;5091944;28;20187;-31
2022/05/23 05:54:30;;;;;;;2.28;1.60;;;20.00;37.00;;;;;;5092171;28;20168;-28
2022/05/23 05:56:59;;;;;;;3.85;1.95;;;20.00;36.70;;;;;;5091851;28;20203;-28
2022/05/23 05:59:25;;;;;;;2.50;1.70;;;20.10;35.80;;;;;;5091938;28;20198;-29
2022/05/23 06:01:51;;;;;;;4.20;1.30;;;20.20;35.00;;;;;;5091899;28;20184;-30
2022/05/23 06:04:17;;;;;;;2.97;1.93;;;20.30;35.60;;;;;;5091626;28;20200;-30
2022/05/23 06:12:11;;;;;;;2.40;1.40;;;20.70;34.30;;;;;;5093549;28;20174;-29
2022/05/23 06:14:37;;;;;;;2.40;1.43;;;20.80;34.10;;;;;;5095423;28;20262;-29
2022/05/23 06:17:07;;;;;;;2.07;1.30;;;20.90;34.50;;;;;;5095780;28;20587;-29
2022/05/23 06:19:45;;;;;;;2.85;1.58;;;21.00;34.50;;;;;;5095720;28;20168;-28
2022/05/23 06:22:11;;;;;;;3.25;1.40;;;21.10;33.60;;;;;;5095490;28;20207;-29
2022/05/23 06:24:37;;;;;;;1.88;1.38;;;21.20;32.70;;;;;;5095452;28;20209;-28
2022/05/23 06:27:06;;;;;;;2.10;1.40;;;21.20;32.40;;;;;;5095476;28;20184;-30
2022/05/23 06:29:33;;;;;;;3.03;1.60;;;21.20;32.80;;;;;;5095581;28;20175;-29
2022/05/23 06:31:58;;;;;;;2.15;1.70;;;21.20;32.90;;;;;;5095608;28;20255;-29
2022/05/23 06:34:25;;;;;;;2.20;1.77;;;21.30;32.70;;;;;;5095259;28;20226;-29
2022/05/23 06:36:51;;;;;;;1.80;1.50;;;21.30;33.10;;;;;;5095106;28;20248;-29
2022/05/23 06:39:17;;;;;;;2.87;1.67;;;21.30;32.50;;;;;;5095182;28;20176;-29
2022/05/23 06:41:44;;;;;;;3.23;1.70;;;21.30;32.60;;;;;;5095021;28;20203;-30
2022/05/23 06:44:10;;;;;;;4.77;1.20;;;21.30;32.80;;;;;;5095057;28;20413;-29
2022/05/23 06:46:35;;;;;;;2.17;1.17;;;21.30;33.20;;;;;;5095072;28;20237;-29
2022/05/23 06:49:01;;;;;;;2.33;1.47;;;21.30;32.80;;;;;;5094898;28;20267;-29
2022/05/23 06:51:27;;;;;;;2.23;1.87;;;21.30;33.30;;;;;;5094915;28;20171;-29
2022/05/23 06:53:56;;;;;;;5.93;1.43;;;21.40;33.00;;;;;;5095452;28;20647;-29
2022/05/23 06:56:22;;;;;;;2.47;1.55;;;21.40;33.20;;;;;;5095315;28;20425;-32
2022/05/23 06:58:48;;;;;;;2.60;1.43;;;21.40;33.40;;;;;;5094726;28;20168;-30
2022/05/23 07:01:14;;;;;;;3.20;1.50;;;21.50;32.90;;;;;;5094962;28;20168;-30
2022/05/23 07:03:41;;;;;;;4.60;1.63;;;21.50;33.00;;;;;;5094931;28;20156;-32
2022/05/23 07:14:20;;;;;;;2.93;1.23;;;21.60;33.20;;;;;;5094973;28;20824;-31
2022/05/23 07:16:46;;;;;;;3.60;1.77;;;21.60;33.00;;;;;;5094213;28;20901;-30
2022/05/23 07:19:12;;;;;;;3.13;1.83;;;21.70;33.20;;;;;;5094344;28;20413;-31
2022/05/23 07:21:38;;;;;;;3.20;1.80;;;21.70;33.60;;;;;;5094507;28;20925;-32
2022/05/23 07:24:04;;;;;;;4.17;2.00;;;21.80;33.40;;;;;;5094001;28;20413;-32
2022/05/23 07:26:31;;;;;;;3.37;1.90;;;21.80;33.40;;;;;;5094408;28;20192;-32
2022/05/23 07:28:57;;;;;;;6.63;1.67;;;21.90;33.60;;;;;;5094219;28;20437;-31
2022/05/23 07:31:23;;;;;;;2.77;1.57;;;22.00;33.40;;;;;;5094195;28;20473;-30
2022/05/23 07:33:48;;;;;;;2.60;2.03;;;22.00;32.60;;;;;;5094043;28;20437;-32
2022/05/23 07:36:14;;;;;;;2.30;1.50;;;22.00;32.70;;;;;;5094078;28;20430;-31
2022/05/23 07:38:40;;;;;;;3.27;1.60;;;22.10;32.70;;;;;;5094115;28;20172;-31
2022/05/23 07:41:08;;;;;;;2.03;1.47;;;22.10;32.70;;;;;;5094325;28;20398;-31
2022/05/23 07:43:37;;;;;;;3.20;1.43;;;22.10;33.50;;;;;;5094060;28;20406;-31
2022/05/23 07:46:14;;;;;;;3.57;1.70;;;22.10;33.30;;;;;;5093621;28;20446;-32
2022/05/23 07:48:48;;;;;;;3.17;1.90;;;22.10;32.50;;;;;;5093873;28;20445;-32
2022/05/23 07:51:16;;;;;;;2.30;1.50;;;22.10;32.80;;;;;;5093859;28;20402;-30
2022/05/23 08:01:57;;;;;;;2.40;1.50;;;22.20;33.30;;;;;;5093995;28;20435;-31
2022/05/23 08:04:23;;;;;;;2.50;1.40;;;22.30;33.50;;;;;;5093494;28;20448;-30
2022/05/23 08:06:49;;;;;;;2.70;2.30;;;22.40;33.00;;;;;;5093525;28;20798;-30
2022/05/23 08:09:17;;;;;;;3.53;1.67;;;22.50;33.30;;;;;;5093547;28;20164;-30
2022/05/23 08:11:46;;;;;;;3.27;1.87;;;22.60;32.80;;;;;;5093593;28;20410;-31
2022/05/23 08:14:12;;;;;;;2.57;1.80;;;22.70;33.60;;;;;;5094728;28;20406;-31
2022/05/23 08:16:38;;;;;;;4.17;1.60;;;22.80;33.40;;;;;;5094714;28;20495;-32
2022/05/23 08:19:06;;;;;;;3.03;1.57;;;23.00;32.50;;;;;;5094835;28;20406;-30
2022/05/23 08:21:32;;;;;;;2.77;1.83;;;23.10;32.70;;;;;;5093765;28;20168;-30
2022/05/23 08:23:58;;;;;;;2.70;1.47;;;23.20;31.70;;;;;;5093028;28;20402;-31
2022/05/23 08:26:25;;;;;;;2.33;1.87;;;23.10;32.40;;;;;;5093090;28;20465;-31
2022/05/23 08:28:51;;;;;;;6.37;1.70;;;23.20;32.60;;;;;;5092904;28;20428;-31
2022/05/23 08:31:17;;;;;;;2.37;1.73;;;23.30;32.40;;;;;;5093039;28;20402;-31
2022/05/23 08:33:43;;;;;;;2.83;2.00;;;23.20;31.60;;;;;;5092642;28;20406;-32
2022/05/23 08:36:10;;;;;;;2.57;1.87;;;23.30;31.80;;;;;;5092458;28;20447;-31
2022/05/23 08:38:36;;;;;;;2.63;2.07;;;23.30;31.90;;;;;;5092793;28;20691;-31
2022/05/23 08:41:18;;;;;;;2.73;2.10;;;23.30;31.80;;;;;;5093215;28;20413;-30
2022/05/23 08:44:05;;;;;;;3.53;1.50;;;23.30;31.80;;;;;;5093287;28;20394;-30
2022/05/23 08:47:05;;;;;;;5.63;1.47;;;23.30;31.70;;;;;;5092714;28;20520;-31
2022/05/23 08:49:45;;;;;;;2.13;1.57;;;23.30;31.50;;;;;;5092776;28;20405;-32
2022/05/23 08:52:33;;;;;;;2.57;1.70;;;23.30;31.20;;;;;;5092811;28;20393;-32
2022/05/23 08:55:14;;;;;;;2.17;1.53;;;23.30;31.50;;;;;;5092644;28;20417;-31
2022/05/23 08:58:00;;;;;;;2.00;1.43;;;23.30;31.10;;;;;;5092829;28;20854;-31
2022/05/23 09:00:35;;;;;;;4.57;1.70;;;23.30;31.50;;;;;;5092956;28;20478;-31
2022/05/23 09:03:30;;;;;;;5.73;1.57;;;23.30;31.30;;;;;;5092482;28;20417;-31
2022/05/23 09:06:00;;;;;;;2.20;1.20;;;23.40;31.60;;;;;;5091572;28;21003;-32
2022/05/23 09:08:31;;;;;;;2.57;1.70;;;23.40;30.90;;;;;;5092411;28;20452;-31
2022/05/23 09:11:17;;;;;;;2.90;1.77;;;23.40;31.00;;;;;;5092440;28;20395;-31
2022/05/23 09:13:44;;;;;;;3.30;1.70;;;23.50;30.70;;;;;;5092402;28;20959;-31
2022/05/23 09:16:12;;;;;;;4.00;1.73;;;23.60;31.00;;;;;;5092139;28;20471;-31
2022/05/23 09:19:04;;;;;;;3.80;2.23;;;23.70;31.30;;;;;;5092221;28;20816;-31
2022/05/23 09:24:18;;;;;;;3.23;1.40;;;23.80;30.90;;;;;;5072047;28;20414;-37
2022/05/23 09:26:45;;;;;;;1.70;1.10;;;23.90;30.90;;;;;;5071937;28;21104;-36
2022/05/23 09:29:12;;;;;;;2.20;1.13;;;24.00;30.50;;;;;;5072004;28;20492;-35
2022/05/23 09:31:49;;;;;;;2.20;1.47;;;24.10;31.00;;;;;;5071865;28;20446;-36
2022/05/23 09:34:45;;;;;;;2.77;1.37;;;24.20;30.30;;;;;;5072178;28;20920;-35
2022/05/23 09:37:23;;;;;;;3.10;1.80;;;24.30;29.80;;;;;;5055221;28;20423;-35
2022/05/23 09:39:52;;;;;;;5.90;1.80;;;24.40;30.30;;;;;;5071858;28;20411;-36
2022/05/23 09:48:23;;;;;;;2.80;1.50;;;25.00;30.40;;;;;;5075652;28;20403;-35
2022/05/23 09:50:59;;;;;;;4.13;1.50;;;25.10;29.00;;;;;;5075848;28;20403;-36
2022/05/23 09:53:52;;;;;;;2.10;1.60;;;25.20;28.50;;;;;;5076098;28;20509;-36
2022/05/23 09:56:38;;;;;;;3.90;2.00;;;25.30;28.20;;;;;;5075707;28;20918;-36
2022/05/23 09:59:20;;;;;;;2.27;1.50;;;25.30;28.50;;;;;;5075733;28;20407;-36
2022/05/23 10:01:46;;;;;;;2.83;1.40;;;25.50;27.00;;;;;;5075661;28;20445;-36
2022/05/23 10:04:25;;;;;;;3.60;2.07;;;25.50;28.10;;;;;;5075668;28;20407;-36
2022/05/23 10:06:51;;;;;;;3.77;1.53;;;25.70;27.20;;;;;;5075425;28;20621;-36
2022/05/23 10:09:32;;;;;;;2.50;1.43;;;25.70;27.20;;;;;;5075390;28;20403;-36
2022/05/23 10:12:08;;;;;;;5.60;2.43;;;25.80;26.50;;;;;;5075499;28;20517;-35
2022/05/23 10:14:41;;;;;;;2.47;1.50;;;25.80;27.00;;;;;;5075510;28;20410;-35
2022/05/23 10:17:08;;;;;;;2.37;1.37;;;25.90;27.00;;;;;;5075139;28;20403;-36
2022/05/23 10:19:37;;;;;;;2.40;1.90;;;26.00;26.60;;;;;;5075228;28;20402;-35
2022/05/23 10:22:09;;;;;;;3.30;2.20;;;26.10;24.60;;;;;;5075185;28;20476;-36
2022/05/23 10:24:38;;;;;;;3.50;1.67;;;26.20;26.80;;;;;;5075298;28;20454;-35
2022/05/23 10:27:12;;;;;;;5.40;1.83;;;26.30;24.90;;;;;;5074948;28;20410;-36
2022/05/23 10:29:43;;;;;;;2.30;1.70;;;26.50;26.80;;;;;;5075218;28;20398;-35
2022/05/23 10:32:18;;;;;;;2.77;2.00;;;26.50;23.40;;;;;;5074835;28;20439;-35
2022/05/23 10:34:53;;;;;;;3.40;1.80;;;26.50;25.00;;;;;;5075011;28;20896;-35
2022/05/23 10:37:21;;;;;;;4.03;1.80;;;26.60;25.80;;;;;;5074811;28;21000;-36
2022/05/23 10:43:08;;;;;;;4.07;1.90;;;26.40;23.50;;;;;;5075081;28;20810;-36
2022/05/23 10:45:46;;;;;;;2.13;1.30;;;26.30;25.10;;;;;;5074881;28;20868;-36
2022/05/23 10:48:30;;;;;;;2.30;2.00;;;26.10;23.90;;;;;;5074833;28;20410;-35
2022/05/23 10:51:10;;;;;;;2.47;1.93;;;25.80;23.90;;;;;;5074722;28;20398;-36
2022/05/23 10:53:56;;;;;;;2.70;1.83;;;25.70;25.30;;;;;;5074886;28;20402;-36
2022/05/23 10:56:53;;;;;;;3.37;2.57;;;25.80;25.00;;;;;;5075175;28;20399;-35
2022/05/23 10:59:41;;;;;;;2.70;1.50;;;25.90;25.00;;;;;;5074117;28;20399;-35
2022/05/23 11:02:22;;;;;;;4.20;1.63;;;26.00;25.10;;;;;;5074621;28;20873;-36
2022/05/23 11:05:03;;;;;;;2.50;1.60;;;25.90;26.10;;;;;;5074584;28;20485;-36
2022/05/23 11:07:43;;;;;;;3.20;1.80;;;25.90;25.60;;;;;;5074219;28;20406;-36
2022/05/23 11:10:24;;;;;;;5.60;1.53;;;26.00;25.70;;;;;;5074487;28;20395;-36
2022/05/23 11:12:55;;;;;;;1.90;1.30;;;26.20;26.20;;;;;;5074284;28;20786;-36
2022/05/23 11:15:37;;;;;;;3.07;1.50;;;26.40;25.60;;;;;;5074384;28;20406;-36
2022/05/23 11:18:27;;;;;;;3.00;1.80;;;26.60;26.40;;;;;;5074093;28;20415;-36
2022/05/23 11:21:03;;;;;;;2.73;1.87;;;26.60;24.10;;;;;;5074614;28;20403;-36
2022/05/23 11:23:38;;;;;;;2.53;1.87;;;26.70;24.60;;;;;;5074068;28;21030;-36
2022/05/23 11:26:22;;;;;;;2.97;1.93;;;26.70;24.20;;;;;;5074139;28;20466;-36
2022/05/23 11:34:33;;;;;;;3.33;3.03;;;26.90;24.70;;;;;;5074101;28;20409;-36
2022/05/23 11:39:56;;;;;;;3.30;1.43;;;27.20;25.60;;;;;;5073889;28;20504;-36
2022/05/23 11:42:24;;;;;;;2.97;2.33;;;27.40;24.80;;;;;;5073923;28;20426;-36
2022/05/23 11:44:50;;;;;;;2.37;1.80;;;27.40;23.90;;;;;;5073737;28;20455;-36
2022/05/23 11:47:28;;;;;;;2.67;1.70;;;27.40;24.30;;;;;;5073353;28;20410;-36
2022/05/23 11:49:59;;;;;;;4.50;1.77;;;27.40;24.20;;;;;;5073594;28;20442;-36
2022/05/23 11:52:42;;;;;;;3.90;1.40;;;27.30;25.20;;;;;;5073680;28;20485;-36
2022/05/23 11:55:09;;;;;;;2.40;1.70;;;27.30;24.50;;;;;;5073664;28;20542;-36
2022/05/23 11:57:38;;;;;;;3.93;2.50;;;27.20;24.70;;;;;;5073167;28;20430;-36
2022/05/23 12:00:25;;;;;;;2.20;1.50;;;27.20;24.50;;;;;;5073555;28;20438;-36
2022/05/23 12:03:14;;;;;;;2.23;1.40;;;27.10;23.80;;;;;;5055999;28;20431;-36
2022/05/23 12:05:40;;;;;;;4.60;2.10;;;27.00;24.50;;;;;;5073366;28;20925;-36
2022/05/23 12:08:26;;;;;;;4.33;2.13;;;27.00;24.60;;;;;;5072937;28;20418;-36
2022/05/23 12:10:58;;;;;;;3.53;2.37;;;27.00;25.20;;;;;;5073401;28;20403;-36
2022/05/23 12:13:32;;;;;;;2.40;1.87;;;27.00;25.00;;;;;;5073240;28;20434;-36
2022/05/23 12:16:26;;;;;;;2.60;1.60;;;27.10;25.30;;;;;;5073122;28;20501;-36
2022/05/23 12:19:20;;;;;;;2.83;1.50;;;27.10;24.60;;;;;;5073092;28;20441;-36
2022/05/23 12:21:48;;;;;;;2.70;2.10;;;27.20;24.80;;;;;;5072771;28;20454;-36
2022/05/23 12:24:22;;;;;;;3.07;1.90;;;27.20;25.60;;;;;;5073040;28;20410;-36
2022/05/23 12:26:52;;;;;;;3.00;2.13;;;27.30;23.40;;;;;;5072701;28;20439;-36
2022/05/23 12:29:30;;;;;;;3.73;2.10;;;27.30;24.30;;;;;;5072770;28;20403;-36
2022/05/23 12:32:18;;;;;;;2.90;2.30;;;27.30;23.40;;;;;;5072925;28;20569;-36
2022/05/23 12:34:47;;;;;;;2.93;2.10;;;27.30;23.80;;;;;;5073253;28;20411;-36
2022/05/23 12:37:45;;;;;;;3.00;1.77;;;27.40;24.00;;;;;;5072410;28;20425;-36
2022/05/23 12:40:21;;;;;;;3.27;1.70;;;27.50;23.90;;;;;;5072018;28;20425;-36
2022/05/23 12:43:08;;;;;;;3.13;2.20;;;27.50;23.00;;;;;;5072572;28;20794;-36
2022/05/23 12:46:05;;;;;;;3.90;1.80;;;27.50;23.20;;;;;;5071608;28;20454;-36
2022/05/23 12:48:52;;;;;;;3.90;2.43;;;27.50;23.50;;;;;;5072431;28;20402;-36
2022/05/23 12:52:01;;;;;;;2.83;1.93;;;27.40;22.70;;;;;;5072520;28;20426;-36
2022/05/23 12:54:49;;;;;;;3.50;2.60;;;27.40;23.60;;;;;;5072644;28;20550;-36
2022/05/23 12:57:50;;;;;;;3.40;2.47;;;27.20;23.10;;;;;;5072091;28;20415;-36
2022/05/23 13:00:21;;;;;;;3.70;2.30;;;27.10;23.40;;;;;;5072359;28;20464;-36
2022/05/23 13:03:08;;;;;;;4.23;2.43;;;26.90;22.70;;;;;;5072605;28;20847;-36
2022/05/23 13:05:45;;;;;;;3.13;2.30;;;26.90;23.50;;;;;;5072336;28;20453;-36
2022/05/23 13:08:23;;;;;;;7.50;2.13;;;26.70;23.70;;;;;;5072071;28;20841;-36
2022/05/23 13:11:01;;;;;;;3.40;2.40;;;26.60;23.80;;;;;;5072476;28;20403;-36
2022/05/23 13:13:45;;;;;;;3.00;2.40;;;26.50;23.60;;;;;;5072403;28;20774;-36
2022/05/23 13:16:17;;;;;;;4.00;2.00;;;26.40;23.80;;;;;;5072273;28;20409;-36
2022/05/23 13:24:48;;;;;;;7.33;4.20;;;26.40;24.80;;;;;;5072327;28;20460;-36
2022/05/23 13:27:03;;;;;;;2.93;2.33;;;26.40;25.00;;;;;;5071621;28;20462;-36
2022/05/23 13:29:30;;;;;;;3.40;2.40;;;26.40;25.10;;;;;;5072015;28;20468;-36
2022/05/23 13:32:01;;;;;;;3.20;2.67;;;26.40;25.70;;;;;;5072043;28;20423;-36
2022/05/23 13:34:40;;;;;;;7.03;3.90;;;26.50;25.40;;;;;;5071939;28;20446;-36
2022/05/23 13:37:07;;;;;;;4.13;3.03;;;26.50;25.50;;;;;;5071880;28;20403;-36
2022/05/23 13:39:43;;;;;;;9.00;4.33;;;26.40;25.50;;;;;;5071792;28;20439;-36
2022/05/23 13:42:20;;;;;;;4.67;3.73;;;26.30;25.60;;;;;;5071809;28;20427;-36
2022/05/23 13:44:47;;;;;;;4.37;2.27;;;26.30;25.90;;;;;;5071879;28;20446;-36
2022/05/23 13:47:21;;;;;;;4.60;2.20;;;26.30;26.20;;;;;;5071623;28;20899;-36
2022/05/23 13:50:00;;;;;;;5.33;2.67;;;26.30;25.80;;;;;;5071871;28;20414;-36
2022/05/23 13:52:44;;;;;;;3.50;2.50;;;26.10;25.70;;;;;;5071955;28;20946;-36
2022/05/23 13:55:20;;;;;;;2.70;2.50;;;26.10;26.40;;;;;;5071897;28;20410;-36
2022/05/23 13:57:52;;;;;;;3.70;2.43;;;26.00;26.20;;;;;;5071690;28;20414;-36
2022/05/23 14:00:26;;;;;;;6.23;2.60;;;26.00;26.40;;;;;;5071695;28;20471;-36
2022/05/23 14:03:00;;;;;;;3.83;2.50;;;26.00;27.50;;;;;;5071717;28;20434;-36
2022/05/23 14:05:30;;;;;;;3.40;2.70;;;25.90;27.60;;;;;;5071724;28;20461;-36
2022/05/23 14:07:57;;;;;;;5.77;3.00;;;25.80;28.10;;;;;;5071594;28;20395;-36
2022/05/23 14:10:26;;;;;;;4.33;2.73;;;25.80;29.20;;;;;;5071728;28;20403;-36
2022/05/23 14:12:53;;;;;;;3.60;3.20;;;25.70;29.00;;;;;;5071428;28;20525;-36
2022/05/23 14:15:23;;;;;;;3.80;3.00;;;25.60;29.50;;;;;;5071486;28;20940;-36
2022/05/23 14:17:50;;;;;;;2.67;2.10;;;25.50;29.40;;;;;;5071455;28;20450;-36
2022/05/23 14:20:39;;;;;;;3.73;3.00;;;25.50;29.60;;;;;;5071606;28;20766;-36